sensor_id;sensor_type;location;lat;lon;timestamp;P1;durP1;ratioP1;P2;durP2;ratioP2
11490;SDS011;5802;52.832;4.758;2023-05-20T00:00:27;8.77;;;2.13;;
11490;SDS011;5802;52.832;4.758;2023-05-20T00:02:54;3.95;;;1.58;;
11490;SDS011;5802;52.832;4.758;2023-05-20T00:05:21;4.35;;;1.55;;
11490;SDS011;5802;52.832;4.758;2023-05-20T00:07:48;8.23;;;1.60;;
11490;SDS011;5802;52.832;4.758;2023-05-20T00:10:15;6.38;;;1.98;;
11490;SDS011;5802;52.832;4.758;2023-05-20T00:12:41;4.40;;;1.80;;
11490;SDS011;5802;52.832;4.758;2023-05-20T00:15:09;5.15;;;1.75;;
11490;SDS011;5802;52.832;4.758;2023-05-20T00:17:36;3.60;;;1.80;;
11490;SDS011;5802;52.832;4.758;2023-05-20T00:20:03;5.10;;;1.60;;
11490;SDS011;5802;52.832;4.758;2023-05-20T00:22:31;3.10;;;1.75;;
11490;SDS011;5802;52.832;4.758;2023-05-20T00:24:58;5.05;;;1.60;;
11490;SDS011;5802;52.832;4.758;2023-05-20T00:27:24;7.60;;;2.10;;
11490;SDS011;5802;52.832;4.758;2023-05-20T00:29:51;3.42;;;1.42;;
11490;SDS011;5802;52.832;4.758;2023-05-20T00:32:19;3.58;;;1.45;;
11490;SDS011;5802;52.832;4.758;2023-05-20T00:34:54;6.00;;;1.35;;
11490;SDS011;5802;52.832;4.758;2023-05-20T00:37:21;3.78;;;1.33;;
11490;SDS011;5802;52.832;4.758;2023-05-20T00:39:48;2.40;;;1.40;;
11490;SDS011;5802;52.832;4.758;2023-05-20T00:42:18;2.92;;;1.70;;
11490;SDS011;5802;52.832;4.758;2023-05-20T00:44:45;3.78;;;1.67;;
11490;SDS011;5802;52.832;4.758;2023-05-20T00:47:12;6.13;;;1.50;;
11490;SDS011;5802;52.832;4.758;2023-05-20T00:49:40;2.85;;;1.42;;
11490;SDS011;5802;52.832;4.758;2023-05-20T00:52:07;4.50;;;1.80;;
11490;SDS011;5802;52.832;4.758;2023-05-20T00:54:34;2.58;;;1.33;;
11490;SDS011;5802;52.832;4.758;2023-05-20T00:57:02;1.50;;;1.20;;
11490;SDS011;5802;52.832;4.758;2023-05-20T00:59:30;3.70;;;1.60;;
11490;SDS011;5802;52.832;4.758;2023-05-20T01:01:57;2.72;;;1.40;;
11490;SDS011;5802;52.832;4.758;2023-05-20T01:04:24;2.97;;;1.63;;
11490;SDS011;5802;52.832;4.758;2023-05-20T01:06:53;4.88;;;1.50;;
11490;SDS011;5802;52.832;4.758;2023-05-20T01:09:21;2.70;;;1.52;;
11490;SDS011;5802;52.832;4.758;2023-05-20T01:11:49;2.15;;;1.42;;
11490;SDS011;5802;52.832;4.758;2023-05-20T01:14:21;3.20;;;1.25;;
11490;SDS011;5802;52.832;4.758;2023-05-20T01:16:51;4.95;;;1.50;;
11490;SDS011;5802;52.832;4.758;2023-05-20T01:19:26;3.90;;;1.20;;
11490;SDS011;5802;52.832;4.758;2023-05-20T01:21:59;4.65;;;1.33;;
11490;SDS011;5802;52.832;4.758;2023-05-20T01:24:29;4.60;;;1.52;;
11490;SDS011;5802;52.832;4.758;2023-05-20T01:26:55;2.80;;;1.27;;
11490;SDS011;5802;52.832;4.758;2023-05-20T01:29:22;2.95;;;1.40;;
11490;SDS011;5802;52.832;4.758;2023-05-20T01:31:49;4.35;;;1.35;;
11490;SDS011;5802;52.832;4.758;2023-05-20T01:34:18;3.00;;;1.48;;
11490;SDS011;5802;52.832;4.758;2023-05-20T01:36:45;2.92;;;1.30;;
11490;SDS011;5802;52.832;4.758;2023-05-20T01:39:12;2.95;;;1.60;;
11490;SDS011;5802;52.832;4.758;2023-05-20T01:41:40;2.97;;;1.33;;
11490;SDS011;5802;52.832;4.758;2023-05-20T01:44:07;3.35;;;1.40;;
11490;SDS011;5802;52.832;4.758;2023-05-20T01:46:34;6.78;;;1.55;;
11490;SDS011;5802;52.832;4.758;2023-05-20T01:49:01;2.92;;;1.40;;
11490;SDS011;5802;52.832;4.758;2023-05-20T01:51:28;4.25;;;1.42;;
11490;SDS011;5802;52.832;4.758;2023-05-20T01:53:57;3.40;;;1.40;;
11490;SDS011;5802;52.832;4.758;2023-05-20T01:56:24;4.03;;;1.50;;
11490;SDS011;5802;52.832;4.758;2023-05-20T01:58:52;4.07;;;1.38;;
11490;SDS011;5802;52.832;4.758;2023-05-20T02:01:19;3.25;;;1.60;;
11490;SDS011;5802;52.832;4.758;2023-05-20T02:03:45;3.92;;;1.38;;
11490;SDS011;5802;52.832;4.758;2023-05-20T02:06:12;3.03;;;1.38;;
11490;SDS011;5802;52.832;4.758;2023-05-20T02:08:38;2.47;;;1.20;;
11490;SDS011;5802;52.832;4.758;2023-05-20T02:11:05;2.53;;;1.45;;
11490;SDS011;5802;52.832;4.758;2023-05-20T02:13:32;2.15;;;1.50;;
11490;SDS011;5802;52.832;4.758;2023-05-20T02:16:00;3.15;;;1.48;;
11490;SDS011;5802;52.832;4.758;2023-05-20T02:18:26;4.55;;;1.38;;
11490;SDS011;5802;52.832;4.758;2023-05-20T02:20:53;4.20;;;1.60;;
11490;SDS011;5802;52.832;4.758;2023-05-20T02:23:20;3.47;;;1.30;;
11490;SDS011;5802;52.832;4.758;2023-05-20T02:25:46;2.78;;;1.45;;
11490;SDS011;5802;52.832;4.758;2023-05-20T02:28:13;2.00;;;1.40;;
11490;SDS011;5802;52.832;4.758;2023-05-20T02:30:40;2.53;;;1.60;;
11490;SDS011;5802;52.832;4.758;2023-05-20T02:33:08;1.98;;;1.27;;
11490;SDS011;5802;52.832;4.758;2023-05-20T02:35:35;3.00;;;1.60;;
11490;SDS011;5802;52.832;4.758;2023-05-20T02:38:01;2.10;;;1.35;;
11490;SDS011;5802;52.832;4.758;2023-05-20T02:40:28;2.10;;;1.63;;
11490;SDS011;5802;52.832;4.758;2023-05-20T02:42:55;3.28;;;1.45;;
11490;SDS011;5802;52.832;4.758;2023-05-20T02:45:22;1.67;;;1.30;;
11490;SDS011;5802;52.832;4.758;2023-05-20T02:47:49;1.65;;;1.30;;
11490;SDS011;5802;52.832;4.758;2023-05-20T02:50:17;2.83;;;1.60;;
11490;SDS011;5802;52.832;4.758;2023-05-20T02:52:44;2.17;;;1.30;;
11490;SDS011;5802;52.832;4.758;2023-05-20T02:55:11;3.58;;;1.33;;
11490;SDS011;5802;52.832;4.758;2023-05-20T02:57:38;2.00;;;1.35;;
11490;SDS011;5802;52.832;4.758;2023-05-20T03:00:05;1.70;;;1.13;;
11490;SDS011;5802;52.832;4.758;2023-05-20T03:02:35;2.53;;;1.27;;
11490;SDS011;5802;52.832;4.758;2023-05-20T03:05:02;2.33;;;1.17;;
11490;SDS011;5802;52.832;4.758;2023-05-20T03:07:31;3.72;;;1.40;;
11490;SDS011;5802;52.832;4.758;2023-05-20T03:10:00;2.45;;;1.40;;
11490;SDS011;5802;52.832;4.758;2023-05-20T03:12:27;2.53;;;1.30;;
11490;SDS011;5802;52.832;4.758;2023-05-20T03:14:54;2.05;;;1.20;;
11490;SDS011;5802;52.832;4.758;2023-05-20T03:17:22;3.67;;;1.42;;
11490;SDS011;5802;52.832;4.758;2023-05-20T03:19:49;1.80;;;1.40;;
11490;SDS011;5802;52.832;4.758;2023-05-20T03:22:16;2.20;;;1.33;;
11490;SDS011;5802;52.832;4.758;2023-05-20T03:24:44;1.77;;;1.30;;
11490;SDS011;5802;52.832;4.758;2023-05-20T03:27:11;2.45;;;1.30;;
11490;SDS011;5802;52.832;4.758;2023-05-20T03:29:38;2.65;;;1.30;;
11490;SDS011;5802;52.832;4.758;2023-05-20T03:32:05;1.98;;;1.40;;
11490;SDS011;5802;52.832;4.758;2023-05-20T03:34:32;3.88;;;1.40;;
11490;SDS011;5802;52.832;4.758;2023-05-20T03:36:59;2.33;;;1.30;;
11490;SDS011;5802;52.832;4.758;2023-05-20T03:39:26;2.78;;;1.60;;
11490;SDS011;5802;52.832;4.758;2023-05-20T03:41:54;2.38;;;1.30;;
11490;SDS011;5802;52.832;4.758;2023-05-20T03:44:20;2.30;;;1.35;;
11490;SDS011;5802;52.832;4.758;2023-05-20T03:46:47;2.03;;;1.30;;
11490;SDS011;5802;52.832;4.758;2023-05-20T03:49:13;2.33;;;1.70;;
11490;SDS011;5802;52.832;4.758;2023-05-20T03:51:40;2.25;;;1.20;;
11490;SDS011;5802;52.832;4.758;2023-05-20T03:54:07;2.63;;;1.50;;
11490;SDS011;5802;52.832;4.758;2023-05-20T03:56:33;1.60;;;1.10;;
11490;SDS011;5802;52.832;4.758;2023-05-20T03:59:01;1.30;;;1.20;;
11490;SDS011;5802;52.832;4.758;2023-05-20T04:01:28;2.15;;;1.33;;
11490;SDS011;5802;52.832;4.758;2023-05-20T04:03:56;2.65;;;1.50;;
11490;SDS011;5802;52.832;4.758;2023-05-20T04:06:22;2.88;;;1.48;;
11490;SDS011;5802;52.832;4.758;2023-05-20T04:08:50;2.30;;;1.38;;
11490;SDS011;5802;52.832;4.758;2023-05-20T04:11:18;2.63;;;1.50;;
11490;SDS011;5802;52.832;4.758;2023-05-20T04:13:45;3.22;;;1.55;;
11490;SDS011;5802;52.832;4.758;2023-05-20T04:16:13;2.00;;;1.60;;
11490;SDS011;5802;52.832;4.758;2023-05-20T04:18:40;1.40;;;1.10;;
11490;SDS011;5802;52.832;4.758;2023-05-20T04:21:09;1.92;;;1.33;;
11490;SDS011;5802;52.832;4.758;2023-05-20T04:23:36;2.08;;;1.25;;
11490;SDS011;5802;52.832;4.758;2023-05-20T04:26:03;2.15;;;1.30;;
11490;SDS011;5802;52.832;4.758;2023-05-20T04:28:29;2.35;;;1.50;;
11490;SDS011;5802;52.832;4.758;2023-05-20T04:30:59;2.38;;;1.60;;
11490;SDS011;5802;52.832;4.758;2023-05-20T04:33:29;2.45;;;1.50;;
11490;SDS011;5802;52.832;4.758;2023-05-20T04:35:57;2.75;;;1.52;;
11490;SDS011;5802;52.832;4.758;2023-05-20T04:38:25;2.08;;;1.50;;
11490;SDS011;5802;52.832;4.758;2023-05-20T04:40:53;2.92;;;1.40;;
11490;SDS011;5802;52.832;4.758;2023-05-20T04:43:22;3.30;;;1.67;;
11490;SDS011;5802;52.832;4.758;2023-05-20T04:45:49;3.47;;;1.48;;
11490;SDS011;5802;52.832;4.758;2023-05-20T04:48:17;2.08;;;1.50;;
11490;SDS011;5802;52.832;4.758;2023-05-20T04:50:45;2.33;;;1.30;;
11490;SDS011;5802;52.832;4.758;2023-05-20T04:53:13;1.63;;;1.52;;
11490;SDS011;5802;52.832;4.758;2023-05-20T04:55:40;2.33;;;1.30;;
11490;SDS011;5802;52.832;4.758;2023-05-20T04:58:07;2.67;;;1.25;;
11490;SDS011;5802;52.832;4.758;2023-05-20T05:00:39;4.20;;;1.40;;
11490;SDS011;5802;52.832;4.758;2023-05-20T05:03:06;1.65;;;1.20;;
11490;SDS011;5802;52.832;4.758;2023-05-20T05:05:33;2.58;;;1.13;;
11490;SDS011;5802;52.832;4.758;2023-05-20T05:08:02;4.05;;;1.30;;
11490;SDS011;5802;52.832;4.758;2023-05-20T05:10:29;1.83;;;1.40;;
11490;SDS011;5802;52.832;4.758;2023-05-20T05:12:55;1.92;;;1.35;;
11490;SDS011;5802;52.832;4.758;2023-05-20T05:15:22;5.32;;;1.50;;
11490;SDS011;5802;52.832;4.758;2023-05-20T05:17:49;2.90;;;1.20;;
11490;SDS011;5802;52.832;4.758;2023-05-20T05:20:16;1.80;;;1.15;;
11490;SDS011;5802;52.832;4.758;2023-05-20T05:22:43;2.30;;;1.30;;
11490;SDS011;5802;52.832;4.758;2023-05-20T05:25:11;2.15;;;1.25;;
11490;SDS011;5802;52.832;4.758;2023-05-20T05:27:38;2.58;;;1.15;;
11490;SDS011;5802;52.832;4.758;2023-05-20T05:30:05;5.28;;;1.60;;
11490;SDS011;5802;52.832;4.758;2023-05-20T05:32:33;2.30;;;1.30;;
11490;SDS011;5802;52.832;4.758;2023-05-20T05:35:02;2.28;;;1.23;;
11490;SDS011;5802;52.832;4.758;2023-05-20T05:37:29;1.88;;;1.27;;
11490;SDS011;5802;52.832;4.758;2023-05-20T05:39:55;2.00;;;1.40;;
11490;SDS011;5802;52.832;4.758;2023-05-20T05:42:23;1.48;;;1.08;;
11490;SDS011;5802;52.832;4.758;2023-05-20T05:44:50;1.40;;;1.30;;
11490;SDS011;5802;52.832;4.758;2023-05-20T05:47:17;2.00;;;1.33;;
11490;SDS011;5802;52.832;4.758;2023-05-20T05:49:44;2.00;;;1.30;;
11490;SDS011;5802;52.832;4.758;2023-05-20T05:52:11;2.63;;;1.40;;
11490;SDS011;5802;52.832;4.758;2023-05-20T05:54:38;2.20;;;1.10;;
11490;SDS011;5802;52.832;4.758;2023-05-20T05:57:04;2.03;;;1.17;;
11490;SDS011;5802;52.832;4.758;2023-05-20T05:59:35;3.42;;;1.23;;
11490;SDS011;5802;52.832;4.758;2023-05-20T06:02:01;1.58;;;1.23;;
11490;SDS011;5802;52.832;4.758;2023-05-20T06:04:28;3.20;;;1.30;;
11490;SDS011;5802;52.832;4.758;2023-05-20T06:06:55;1.65;;;1.10;;
11490;SDS011;5802;52.832;4.758;2023-05-20T06:09:21;2.47;;;1.30;;
11490;SDS011;5802;52.832;4.758;2023-05-20T06:11:48;3.33;;;1.25;;
11490;SDS011;5802;52.832;4.758;2023-05-20T06:14:15;2.03;;;1.10;;
11490;SDS011;5802;52.832;4.758;2023-05-20T06:16:43;2.65;;;1.35;;
11490;SDS011;5802;52.832;4.758;2023-05-20T06:19:09;1.88;;;1.40;;
11490;SDS011;5802;52.832;4.758;2023-05-20T06:21:36;3.03;;;1.45;;
11490;SDS011;5802;52.832;4.758;2023-05-20T06:24:03;2.28;;;1.20;;
11490;SDS011;5802;52.832;4.758;2023-05-20T06:26:30;2.03;;;1.05;;
11490;SDS011;5802;52.832;4.758;2023-05-20T06:28:57;1.45;;;1.15;;
11490;SDS011;5802;52.832;4.758;2023-05-20T06:31:23;2.13;;;1.15;;
11490;SDS011;5802;52.832;4.758;2023-05-20T06:33:55;1.45;;;1.10;;
11490;SDS011;5802;52.832;4.758;2023-05-20T06:36:22;2.22;;;1.30;;
11490;SDS011;5802;52.832;4.758;2023-05-20T06:38:48;1.33;;;1.05;;
11490;SDS011;5802;52.832;4.758;2023-05-20T06:41:15;1.98;;;1.23;;
11490;SDS011;5802;52.832;4.758;2023-05-20T06:43:42;1.92;;;1.20;;
11490;SDS011;5802;52.832;4.758;2023-05-20T06:46:08;1.58;;;1.10;;
11490;SDS011;5802;52.832;4.758;2023-05-20T06:48:35;1.63;;;1.10;;
11490;SDS011;5802;52.832;4.758;2023-05-20T06:51:04;1.70;;;1.20;;
11490;SDS011;5802;52.832;4.758;2023-05-20T06:53:32;2.85;;;1.10;;
11490;SDS011;5802;52.832;4.758;2023-05-20T06:55:58;2.75;;;1.30;;
11490;SDS011;5802;52.832;4.758;2023-05-20T06:58:25;3.17;;;1.30;;
11490;SDS011;5802;52.832;4.758;2023-05-20T07:00:52;2.10;;;1.30;;
11490;SDS011;5802;52.832;4.758;2023-05-20T07:03:19;3.53;;;1.20;;
11490;SDS011;5802;52.832;4.758;2023-05-20T07:05:45;3.50;;;1.38;;
11490;SDS011;5802;52.832;4.758;2023-05-20T07:08:14;9.88;;;1.65;;
11490;SDS011;5802;52.832;4.758;2023-05-20T07:10:40;3.50;;;1.30;;
11490;SDS011;5802;52.832;4.758;2023-05-20T07:13:07;3.38;;;1.60;;
11490;SDS011;5802;52.832;4.758;2023-05-20T07:15:34;2.40;;;1.35;;
11490;SDS011;5802;52.832;4.758;2023-05-20T07:18:01;4.82;;;1.80;;
11490;SDS011;5802;52.832;4.758;2023-05-20T07:20:27;2.38;;;1.20;;
11490;SDS011;5802;52.832;4.758;2023-05-20T07:22:54;3.30;;;1.60;;
11490;SDS011;5802;52.832;4.758;2023-05-20T07:25:22;2.55;;;1.33;;
11490;SDS011;5802;52.832;4.758;2023-05-20T07:27:49;2.05;;;1.27;;
11490;SDS011;5802;52.832;4.758;2023-05-20T07:30:16;1.90;;;1.30;;
11490;SDS011;5802;52.832;4.758;2023-05-20T07:32:42;2.92;;;1.40;;
11490;SDS011;5802;52.832;4.758;2023-05-20T07:35:09;3.55;;;1.38;;
11490;SDS011;5802;52.832;4.758;2023-05-20T07:37:36;2.95;;;1.33;;
11490;SDS011;5802;52.832;4.758;2023-05-20T07:40:03;1.95;;;1.38;;
11490;SDS011;5802;52.832;4.758;2023-05-20T07:42:33;3.50;;;1.60;;
11490;SDS011;5802;52.832;4.758;2023-05-20T07:45:00;3.25;;;1.50;;
11490;SDS011;5802;52.832;4.758;2023-05-20T07:47:26;2.38;;;1.20;;
11490;SDS011;5802;52.832;4.758;2023-05-20T07:49:53;3.20;;;1.55;;
11490;SDS011;5802;52.832;4.758;2023-05-20T07:52:20;3.17;;;1.40;;
11490;SDS011;5802;52.832;4.758;2023-05-20T07:54:46;2.25;;;1.20;;
11490;SDS011;5802;52.832;4.758;2023-05-20T07:57:13;1.52;;;1.20;;
11490;SDS011;5802;52.832;4.758;2023-05-20T07:59:41;1.83;;;1.10;;
11490;SDS011;5802;52.832;4.758;2023-05-20T08:02:08;3.47;;;1.45;;
11490;SDS011;5802;52.832;4.758;2023-05-20T08:04:35;1.95;;;1.38;;
11490;SDS011;5802;52.832;4.758;2023-05-20T08:07:02;1.95;;;1.40;;
11490;SDS011;5802;52.832;4.758;2023-05-20T08:09:29;2.10;;;1.40;;
11490;SDS011;5802;52.832;4.758;2023-05-20T08:11:56;3.28;;;1.40;;
11490;SDS011;5802;52.832;4.758;2023-05-20T08:14:23;2.67;;;1.40;;
11490;SDS011;5802;52.832;4.758;2023-05-20T08:16:51;1.98;;;1.20;;
11490;SDS011;5802;52.832;4.758;2023-05-20T08:19:18;1.98;;;1.10;;
11490;SDS011;5802;52.832;4.758;2023-05-20T08:21:44;1.40;;;1.20;;
11490;SDS011;5802;52.832;4.758;2023-05-20T08:24:11;4.10;;;1.30;;
11490;SDS011;5802;52.832;4.758;2023-05-20T08:26:38;4.00;;;1.10;;
11490;SDS011;5802;52.832;4.758;2023-05-20T08:29:04;1.80;;;1.27;;
11490;SDS011;5802;52.832;4.758;2023-05-20T08:31:32;3.25;;;1.23;;
11490;SDS011;5802;52.832;4.758;2023-05-20T08:34:00;1.77;;;1.20;;
11490;SDS011;5802;52.832;4.758;2023-05-20T08:36:27;1.63;;;1.13;;
11490;SDS011;5802;52.832;4.758;2023-05-20T08:38:53;1.38;;;1.10;;
11490;SDS011;5802;52.832;4.758;2023-05-20T08:41:21;1.50;;;1.13;;
11490;SDS011;5802;52.832;4.758;2023-05-20T08:43:48;2.03;;;1.13;;
11490;SDS011;5802;52.832;4.758;2023-05-20T08:46:16;1.58;;;1.00;;
11490;SDS011;5802;52.832;4.758;2023-05-20T08:48:45;1.50;;;1.10;;
11490;SDS011;5802;52.832;4.758;2023-05-20T08:51:14;1.27;;;1.10;;
11490;SDS011;5802;52.832;4.758;2023-05-20T08:53:42;1.20;;;1.00;;
11490;SDS011;5802;52.832;4.758;2023-05-20T08:56:09;1.77;;;1.10;;
11490;SDS011;5802;52.832;4.758;2023-05-20T08:58:37;1.58;;;1.25;;
11490;SDS011;5802;52.832;4.758;2023-05-20T09:01:04;3.03;;;1.55;;
11490;SDS011;5802;52.832;4.758;2023-05-20T09:03:32;2.30;;;1.50;;
11490;SDS011;5802;52.832;4.758;2023-05-20T09:06:05;8.60;;;1.55;;
11490;SDS011;5802;52.832;4.758;2023-05-20T09:08:34;3.28;;;1.40;;
11490;SDS011;5802;52.832;4.758;2023-05-20T09:11:01;4.55;;;1.40;;
11490;SDS011;5802;52.832;4.758;2023-05-20T09:13:29;4.90;;;1.60;;
11490;SDS011;5802;52.832;4.758;2023-05-20T09:15:56;4.35;;;1.20;;
11490;SDS011;5802;52.832;4.758;2023-05-20T09:18:25;2.85;;;1.17;;
11490;SDS011;5802;52.832;4.758;2023-05-20T09:20:51;2.78;;;1.35;;
11490;SDS011;5802;52.832;4.758;2023-05-20T09:23:18;4.88;;;1.42;;
11490;SDS011;5802;52.832;4.758;2023-05-20T09:25:47;4.78;;;1.45;;
11490;SDS011;5802;52.832;4.758;2023-05-20T09:28:15;2.47;;;1.42;;
11490;SDS011;5802;52.832;4.758;2023-05-20T09:30:41;4.05;;;1.30;;
11490;SDS011;5802;52.832;4.758;2023-05-20T09:33:10;2.17;;;1.40;;
11490;SDS011;5802;52.832;4.758;2023-05-20T09:35:37;4.30;;;1.67;;
11490;SDS011;5802;52.832;4.758;2023-05-20T09:38:04;7.40;;;2.30;;
11490;SDS011;5802;52.832;4.758;2023-05-20T09:40:32;7.15;;;3.33;;
11490;SDS011;5802;52.832;4.758;2023-05-20T09:43:03;7.20;;;2.47;;
11490;SDS011;5802;52.832;4.758;2023-05-20T09:45:31;4.75;;;2.80;;
11490;SDS011;5802;52.832;4.758;2023-05-20T09:47:58;13.90;;;2.75;;
11490;SDS011;5802;52.832;4.758;2023-05-20T09:50:26;5.90;;;2.15;;
11490;SDS011;5802;52.832;4.758;2023-05-20T09:52:54;8.52;;;2.55;;
11490;SDS011;5802;52.832;4.758;2023-05-20T09:55:21;6.93;;;2.38;;
11490;SDS011;5802;52.832;4.758;2023-05-20T09:57:50;5.72;;;2.00;;
11490;SDS011;5802;52.832;4.758;2023-05-20T10:00:19;4.38;;;2.10;;
11490;SDS011;5802;52.832;4.758;2023-05-20T10:02:46;4.70;;;2.33;;
11490;SDS011;5802;52.832;4.758;2023-05-20T10:05:15;6.88;;;2.45;;
11490;SDS011;5802;52.832;4.758;2023-05-20T10:07:54;4.38;;;2.08;;
11490;SDS011;5802;52.832;4.758;2023-05-20T10:10:44;6.85;;;2.05;;
11490;SDS011;5802;52.832;4.758;2023-05-20T10:13:31;6.28;;;1.85;;
11490;SDS011;5802;52.832;4.758;2023-05-20T10:16:28;8.23;;;1.88;;
11490;SDS011;5802;52.832;4.758;2023-05-20T10:19:04;4.68;;;2.33;;
11490;SDS011;5802;52.832;4.758;2023-05-20T10:21:39;4.43;;;2.17;;
11490;SDS011;5802;52.832;4.758;2023-05-20T10:24:06;6.63;;;2.25;;
11490;SDS011;5802;52.832;4.758;2023-05-20T10:26:34;4.18;;;2.38;;
11490;SDS011;5802;52.832;4.758;2023-05-20T10:29:01;6.22;;;2.28;;
11490;SDS011;5802;52.832;4.758;2023-05-20T10:31:44;4.00;;;1.85;;
11490;SDS011;5802;52.832;4.758;2023-05-20T10:34:14;6.47;;;2.00;;
11490;SDS011;5802;52.832;4.758;2023-05-20T10:36:44;4.43;;;1.70;;
11490;SDS011;5802;52.832;4.758;2023-05-20T10:39:16;2.45;;;1.50;;
11490;SDS011;5802;52.832;4.758;2023-05-20T10:41:42;3.47;;;1.88;;
11490;SDS011;5802;52.832;4.758;2023-05-20T10:44:09;4.18;;;2.08;;
11490;SDS011;5802;52.832;4.758;2023-05-20T10:46:36;4.88;;;1.90;;
11490;SDS011;5802;52.832;4.758;2023-05-20T10:49:04;4.35;;;1.83;;
11490;SDS011;5802;52.832;4.758;2023-05-20T10:51:42;5.95;;;2.30;;
11490;SDS011;5802;52.832;4.758;2023-05-20T10:54:11;5.68;;;1.88;;
11490;SDS011;5802;52.832;4.758;2023-05-20T10:56:38;4.28;;;1.77;;
11490;SDS011;5802;52.832;4.758;2023-05-20T10:59:15;6.65;;;1.80;;
11490;SDS011;5802;52.832;4.758;2023-05-20T11:01:42;5.38;;;1.92;;
11490;SDS011;5802;52.832;4.758;2023-05-20T11:04:10;3.83;;;1.67;;
11490;SDS011;5802;52.832;4.758;2023-05-20T11:06:38;4.72;;;1.80;;
11490;SDS011;5802;52.832;4.758;2023-05-20T11:09:15;6.22;;;1.80;;
11490;SDS011;5802;52.832;4.758;2023-05-20T11:11:42;4.57;;;1.77;;
11490;SDS011;5802;52.832;4.758;2023-05-20T11:14:08;3.47;;;1.58;;
11490;SDS011;5802;52.832;4.758;2023-05-20T11:16:37;3.83;;;1.60;;
11490;SDS011;5802;52.832;4.758;2023-05-20T11:19:05;2.90;;;1.48;;
11490;SDS011;5802;52.832;4.758;2023-05-20T11:21:33;4.03;;;1.63;;
11490;SDS011;5802;52.832;4.758;2023-05-20T11:24:07;6.63;;;1.95;;
11490;SDS011;5802;52.832;4.758;2023-05-20T11:26:34;3.78;;;1.30;;
11490;SDS011;5802;52.832;4.758;2023-05-20T11:29:01;4.82;;;1.55;;
11490;SDS011;5802;52.832;4.758;2023-05-20T11:31:28;3.30;;;1.42;;
11490;SDS011;5802;52.832;4.758;2023-05-20T11:33:55;3.70;;;1.63;;
11490;SDS011;5802;52.832;4.758;2023-05-20T11:36:25;5.43;;;1.70;;
11490;SDS011;5802;52.832;4.758;2023-05-20T11:38:54;3.47;;;1.55;;
11490;SDS011;5802;52.832;4.758;2023-05-20T11:41:23;6.47;;;1.70;;
11490;SDS011;5802;52.832;4.758;2023-05-20T11:43:54;4.63;;;1.40;;
11490;SDS011;5802;52.832;4.758;2023-05-20T11:46:22;3.67;;;1.48;;
11490;SDS011;5802;52.832;4.758;2023-05-20T11:48:52;5.68;;;1.60;;
11490;SDS011;5802;52.832;4.758;2023-05-20T11:51:21;3.50;;;1.35;;
11490;SDS011;5802;52.832;4.758;2023-05-20T11:53:49;6.07;;;1.65;;
11490;SDS011;5802;52.832;4.758;2023-05-20T11:56:17;4.60;;;1.40;;
11490;SDS011;5802;52.832;4.758;2023-05-20T11:58:45;4.70;;;1.65;;
11490;SDS011;5802;52.832;4.758;2023-05-20T12:01:12;4.50;;;1.67;;
11490;SDS011;5802;52.832;4.758;2023-05-20T12:03:38;4.88;;;1.60;;
11490;SDS011;5802;52.832;4.758;2023-05-20T12:06:05;6.80;;;1.55;;
11490;SDS011;5802;52.832;4.758;2023-05-20T12:08:32;8.85;;;1.75;;
11490;SDS011;5802;52.832;4.758;2023-05-20T12:10:58;4.80;;;1.63;;
11490;SDS011;5802;52.832;4.758;2023-05-20T12:13:27;7.43;;;1.60;;
11490;SDS011;5802;52.832;4.758;2023-05-20T12:15:53;4.35;;;1.60;;
11490;SDS011;5802;52.832;4.758;2023-05-20T12:18:21;7.72;;;2.08;;
11490;SDS011;5802;52.832;4.758;2023-05-20T12:20:47;8.82;;;1.92;;
11490;SDS011;5802;52.832;4.758;2023-05-20T12:23:14;3.53;;;1.40;;
11490;SDS011;5802;52.832;4.758;2023-05-20T12:25:40;4.63;;;1.70;;
11490;SDS011;5802;52.832;4.758;2023-05-20T12:28:09;11.07;;;2.10;;
11490;SDS011;5802;52.832;4.758;2023-05-20T12:30:37;5.78;;;1.52;;
11490;SDS011;5802;52.832;4.758;2023-05-20T12:33:04;3.72;;;1.42;;
11490;SDS011;5802;52.832;4.758;2023-05-20T12:35:40;6.45;;;1.77;;
11490;SDS011;5802;52.832;4.758;2023-05-20T12:38:08;6.20;;;1.50;;
11490;SDS011;5802;52.832;4.758;2023-05-20T12:40:35;4.47;;;1.67;;
11490;SDS011;5802;52.832;4.758;2023-05-20T12:43:02;4.53;;;1.90;;
11490;SDS011;5802;52.832;4.758;2023-05-20T12:45:29;4.00;;;1.40;;
11490;SDS011;5802;52.832;4.758;2023-05-20T12:47:57;5.97;;;1.33;;
11490;SDS011;5802;52.832;4.758;2023-05-20T12:50:24;3.58;;;1.60;;
11490;SDS011;5802;52.832;4.758;2023-05-20T12:52:52;4.25;;;1.67;;
11490;SDS011;5802;52.832;4.758;2023-05-20T12:55:18;3.55;;;1.63;;
11490;SDS011;5802;52.832;4.758;2023-05-20T12:57:45;3.35;;;1.55;;
11490;SDS011;5802;52.832;4.758;2023-05-20T13:00:12;4.60;;;1.40;;
11490;SDS011;5802;52.832;4.758;2023-05-20T13:02:40;2.97;;;1.58;;
11490;SDS011;5802;52.832;4.758;2023-05-20T13:05:09;3.65;;;1.55;;
11490;SDS011;5802;52.832;4.758;2023-05-20T13:07:36;7.20;;;1.80;;
11490;SDS011;5802;52.832;4.758;2023-05-20T13:10:03;2.47;;;1.73;;
11490;SDS011;5802;52.832;4.758;2023-05-20T13:12:31;2.92;;;1.75;;
11490;SDS011;5802;52.832;4.758;2023-05-20T13:14:57;4.50;;;1.63;;
11490;SDS011;5802;52.832;4.758;2023-05-20T13:17:24;6.45;;;2.22;;
11490;SDS011;5802;52.832;4.758;2023-05-20T13:19:52;4.22;;;1.98;;
11490;SDS011;5802;52.832;4.758;2023-05-20T13:22:20;3.67;;;1.58;;
11490;SDS011;5802;52.832;4.758;2023-05-20T13:24:47;5.32;;;1.60;;
11490;SDS011;5802;52.832;4.758;2023-05-20T13:27:13;5.78;;;1.58;;
11490;SDS011;5802;52.832;4.758;2023-05-20T13:29:40;4.63;;;1.50;;
11490;SDS011;5802;52.832;4.758;2023-05-20T13:32:07;4.28;;;1.70;;
11490;SDS011;5802;52.832;4.758;2023-05-20T13:34:34;3.95;;;1.67;;
11490;SDS011;5802;52.832;4.758;2023-05-20T13:37:01;2.78;;;1.67;;
11490;SDS011;5802;52.832;4.758;2023-05-20T13:39:29;4.10;;;1.52;;
11490;SDS011;5802;52.832;4.758;2023-05-20T13:41:56;6.15;;;1.60;;
11490;SDS011;5802;52.832;4.758;2023-05-20T13:44:23;5.32;;;1.65;;
11490;SDS011;5802;52.832;4.758;2023-05-20T13:46:50;5.97;;;2.20;;
11490;SDS011;5802;52.832;4.758;2023-05-20T13:49:17;4.45;;;1.70;;
11490;SDS011;5802;52.832;4.758;2023-05-20T13:51:43;5.88;;;1.80;;
11490;SDS011;5802;52.832;4.758;2023-05-20T13:54:10;4.63;;;1.65;;
11490;SDS011;5802;52.832;4.758;2023-05-20T13:56:38;4.03;;;2.00;;
11490;SDS011;5802;52.832;4.758;2023-05-20T13:59:05;6.90;;;1.92;;
11490;SDS011;5802;52.832;4.758;2023-05-20T14:01:31;5.57;;;1.63;;
11490;SDS011;5802;52.832;4.758;2023-05-20T14:03:58;5.55;;;1.85;;
11490;SDS011;5802;52.832;4.758;2023-05-20T14:06:25;3.00;;;1.60;;
11490;SDS011;5802;52.832;4.758;2023-05-20T14:08:53;3.30;;;1.60;;
11490;SDS011;5802;52.832;4.758;2023-05-20T14:11:21;4.72;;;1.73;;
11490;SDS011;5802;52.832;4.758;2023-05-20T14:13:49;5.28;;;1.85;;
11490;SDS011;5802;52.832;4.758;2023-05-20T14:16:16;4.10;;;1.40;;
11490;SDS011;5802;52.832;4.758;2023-05-20T14:18:43;3.22;;;1.60;;
11490;SDS011;5802;52.832;4.758;2023-05-20T14:21:10;8.65;;;1.80;;
11490;SDS011;5802;52.832;4.758;2023-05-20T14:23:36;7.57;;;1.60;;
11490;SDS011;5802;52.832;4.758;2023-05-20T14:26:04;4.32;;;1.60;;
11490;SDS011;5802;52.832;4.758;2023-05-20T14:28:31;4.82;;;1.63;;
11490;SDS011;5802;52.832;4.758;2023-05-20T14:30:59;2.20;;;1.60;;
11490;SDS011;5802;52.832;4.758;2023-05-20T14:33:26;5.65;;;1.88;;
11490;SDS011;5802;52.832;4.758;2023-05-20T14:35:53;9.68;;;1.70;;
11490;SDS011;5802;52.832;4.758;2023-05-20T14:38:19;4.15;;;1.50;;
11490;SDS011;5802;52.832;4.758;2023-05-20T14:40:46;5.03;;;1.52;;
11490;SDS011;5802;52.832;4.758;2023-05-20T14:43:13;3.80;;;1.60;;
11490;SDS011;5802;52.832;4.758;2023-05-20T14:45:40;4.65;;;1.70;;
11490;SDS011;5802;52.832;4.758;2023-05-20T14:48:08;3.88;;;1.70;;
11490;SDS011;5802;52.832;4.758;2023-05-20T14:50:35;4.50;;;2.00;;
11490;SDS011;5802;52.832;4.758;2023-05-20T14:53:02;4.65;;;2.08;;
11490;SDS011;5802;52.832;4.758;2023-05-20T14:55:29;7.03;;;1.80;;
11490;SDS011;5802;52.832;4.758;2023-05-20T14:57:57;4.10;;;1.67;;
11490;SDS011;5802;52.832;4.758;2023-05-20T15:00:24;10.20;;;2.20;;
11490;SDS011;5802;52.832;4.758;2023-05-20T15:02:50;5.80;;;1.70;;